Time;durP1;ratioP1;P1;durP2;ratioP2;P2;SDS_P1;SDS_P2;PMS_P1;PMS_P2;Temp;Humidity;BMP_temperature;BMP_pressure;BME280_temperature;BME280_humidity;BME280_pressure;Samples;Min_cycle;Max_cycle;Signal;HPM_P1;HPM_P2
2022/01/05 00:01:09;;;;;;;2.03;1.00;;;;;;;;;;5012661;28;20562;-76
2022/01/05 00:03:36;;;;;;;2.92;1.05;;;;;;;;;;5013079;28;20523;-75
2022/01/05 00:06:02;;;;;;;1.83;0.88;;;;;;;;;;5012804;28;20064;-76
2022/01/05 00:08:27;;;;;;;4.18;1.10;;;;;;;;;;5013186;28;20372;-75
2022/01/05 00:10:53;;;;;;;3.25;1.90;;;;;;;;;;5013115;28;20080;-75
2022/01/05 00:13:19;;;;;;;2.53;1.20;;;;;;;;;;5013229;28;20444;-75
2022/01/05 00:15:44;;;;;;;4.40;1.30;;;;;;;;;;5012575;28;20022;-76
2022/01/05 00:18:09;;;;;;;3.90;1.00;;;;;;;;;;5012791;28;20391;-76
2022/01/05 00:20:35;;;;;;;2.13;1.02;;;;;;;;;;5012989;28;20088;-75
2022/01/05 00:23:00;;;;;;;3.50;1.27;;;;;;;;;;5013773;28;20047;-75
2022/01/05 00:25:25;;;;;;;3.45;1.88;;;;;;;;;;5012452;28;20364;-76
2022/01/05 00:27:50;;;;;;;1.92;1.20;;;;;;;;;;5012382;28;20075;-75
2022/01/05 00:30:16;;;;;;;3.05;1.20;;;;;;;;;;5012289;28;20475;-76
2022/01/05 00:32:41;;;;;;;5.75;1.33;;;;;;;;;;5012892;28;20029;-74
2022/01/05 00:35:07;;;;;;;3.83;1.20;;;;;;;;;;5012172;28;20026;-75
2022/01/05 00:37:32;;;;;;;2.72;1.00;;;;;;;;;;5012519;28;20027;-76
2022/01/05 00:39:58;;;;;;;3.25;2.03;;;;;;;;;;5013091;28;20392;-76
2022/01/05 00:42:24;;;;;;;1.98;1.00;;;;;;;;;;5012467;28;20021;-77
2022/01/05 00:44:49;;;;;;;1.55;0.95;;;;;;;;;;5012131;28;20030;-74
2022/01/05 00:47:16;;;;;;;0.70;0.60;;;;;;;;;;5012406;28;20033;-74
2022/01/05 00:49:41;;;;;;;0.85;0.55;;;;;;;;;;5012346;28;20535;-75
2022/01/05 00:52:07;;;;;;;0.88;0.50;;;;;;;;;;5012418;28;20116;-76
2022/01/05 00:54:32;;;;;;;1.45;0.50;;;;;;;;;;5012238;28;20056;-74
2022/01/05 00:56:57;;;;;;;0.60;0.40;;;;;;;;;;5015279;28;20052;-76
2022/01/05 00:59:24;;;;;;;0.40;0.40;;;;;;;;;;5023961;28;20076;-74
2022/01/05 01:01:49;;;;;;;0.40;0.40;;;;;;;;;;5027116;28;20029;-74
2022/01/05 01:04:14;;;;;;;0.30;0.30;;;;;;;;;;5016995;28;20033;-73
2022/01/05 01:06:40;;;;;;;0.45;0.43;;;;;;;;;;5011925;28;20443;-73
2022/01/05 01:09:05;;;;;;;0.32;0.32;;;;;;;;;;5012012;28;20104;-73
2022/01/05 01:11:30;;;;;;;0.32;0.32;;;;;;;;;;5011608;28;20034;-74
2022/01/05 01:13:55;;;;;;;0.30;0.30;;;;;;;;;;5012534;28;20293;-76
2022/01/05 01:16:21;;;;;;;0.30;0.30;;;;;;;;;;5011480;28;20061;-73
2022/01/05 01:18:46;;;;;;;0.30;0.30;;;;;;;;;;5011577;28;20109;-75
2022/01/05 01:21:12;;;;;;;1.65;0.32;;;;;;;;;;5011208;28;20034;-74
2022/01/05 01:23:38;;;;;;;0.63;0.40;;;;;;;;;;5011608;28;20369;-74
2022/01/05 01:26:04;;;;;;;0.35;0.35;;;;;;;;;;5011093;28;20029;-73
2022/01/05 01:28:29;;;;;;;0.35;0.35;;;;;;;;;;5011484;28;20029;-74
2022/01/05 01:30:55;;;;;;;0.43;0.43;;;;;;;;;;5012191;28;20380;-74
2022/01/05 01:33:20;;;;;;;0.40;0.40;;;;;;;;;;5011404;28;20040;-74
2022/01/05 01:35:45;;;;;;;0.40;0.40;;;;;;;;;;5011110;28;20029;-74
2022/01/05 01:38:11;;;;;;;0.30;0.30;;;;;;;;;;5011244;28;20037;-74
2022/01/05 01:40:36;;;;;;;0.30;0.30;;;;;;;;;;5011371;28;20054;-74
2022/01/05 01:43:02;;;;;;;0.32;0.32;;;;;;;;;;5011204;28;20029;-74
2022/01/05 01:45:27;;;;;;;0.52;0.40;;;;;;;;;;5009238;28;20529;-74
2022/01/05 01:47:53;;;;;;;0.30;0.30;;;;;;;;;;5012982;28;20029;-74
2022/01/05 01:50:18;;;;;;;0.30;0.30;;;;;;;;;;5017603;28;20042;-73
2022/01/05 01:52:44;;;;;;;0.40;0.40;;;;;;;;;;5011001;28;20050;-74
2022/01/05 01:55:11;;;;;;;0.30;0.30;;;;;;;;;;5010556;28;20109;-74
2022/01/05 01:57:41;;;;;;;0.20;0.20;;;;;;;;;;5011113;28;20061;-74
2022/01/05 02:00:07;;;;;;;0.43;0.40;;;;;;;;;;5011155;28;20088;-72
2022/01/05 02:02:32;;;;;;;0.35;0.35;;;;;;;;;;5011018;28;20041;-75
2022/01/05 02:04:57;;;;;;;0.40;0.40;;;;;;;;;;5011544;28;20487;-75
2022/01/05 02:07:23;;;;;;;0.30;0.30;;;;;;;;;;5010828;28;20028;-74
2022/01/05 02:09:48;;;;;;;0.40;0.40;;;;;;;;;;5010519;28;20104;-75
2022/01/05 02:12:14;;;;;;;0.82;0.30;;;;;;;;;;5009297;28;20029;-75
2022/01/05 02:14:39;;;;;;;0.75;0.40;;;;;;;;;;5010145;28;20029;-75
2022/01/05 02:17:11;;;;;;;0.47;0.40;;;;;;;;;;5010324;28;20037;-74
2022/01/05 02:19:36;;;;;;;1.55;0.50;;;;;;;;;;5011534;28;20025;-74
2022/01/05 02:22:03;;;;;;;2.92;0.47;;;;;;;;;;5010405;28;20036;-75
2022/01/05 02:24:29;;;;;;;0.80;0.45;;;;;;;;;;5010152;28;20030;-74
2022/01/05 02:26:54;;;;;;;0.30;0.30;;;;;;;;;;5010348;28;20104;-74
2022/01/05 02:29:21;;;;;;;0.32;0.30;;;;;;;;;;5010421;28;20028;-74
2022/01/05 02:31:46;;;;;;;0.30;0.30;;;;;;;;;;5010028;28;20022;-74
2022/01/05 02:34:15;;;;;;;0.50;0.40;;;;;;;;;;5015078;28;20044;-74
2022/01/05 02:36:40;;;;;;;0.40;0.40;;;;;;;;;;5029055;28;20283;-73
2022/01/05 02:39:05;;;;;;;0.80;0.40;;;;;;;;;;5010232;28;20026;-73
2022/01/05 02:41:31;;;;;;;0.40;0.40;;;;;;;;;;5009832;28;20037;-74
2022/01/05 02:43:56;;;;;;;0.30;0.30;;;;;;;;;;5009832;28;20091;-73
2022/01/05 02:46:22;;;;;;;0.45;0.43;;;;;;;;;;5009994;28;20018;-76
2022/01/05 02:48:50;;;;;;;0.60;0.50;;;;;;;;;;5010068;28;20498;-72
2022/01/05 02:51:16;;;;;;;1.50;0.60;;;;;;;;;;5013313;28;20052;-72
2022/01/05 02:53:42;;;;;;;1.85;0.60;;;;;;;;;;5010037;28;20606;-73
2022/01/05 02:56:08;;;;;;;0.57;0.50;;;;;;;;;;5009320;28;20065;-75
2022/01/05 02:58:33;;;;;;;1.67;0.63;;;;;;;;;;5010112;28;20065;-75
2022/01/05 03:00:59;;;;;;;1.48;0.60;;;;;;;;;;5009490;28;20030;-73
2022/01/05 03:03:24;;;;;;;0.75;0.55;;;;;;;;;;5009504;28;20030;-74
2022/01/05 03:05:49;;;;;;;0.60;0.60;;;;;;;;;;5008326;28;20459;-74
2022/01/05 03:08:15;;;;;;;0.50;0.50;;;;;;;;;;5021169;28;20483;-74
2022/01/05 03:10:41;;;;;;;0.60;0.60;;;;;;;;;;5028193;28;20034;-71
2022/01/05 03:13:06;;;;;;;0.63;0.60;;;;;;;;;;5009698;28;20064;-74
2022/01/05 03:15:35;;;;;;;1.10;0.90;;;;;;;;;;5009410;28;20049;-74
2022/01/05 03:18:00;;;;;;;1.55;0.80;;;;;;;;;;5009966;28;20053;-73
2022/01/05 03:20:28;;;;;;;1.10;0.80;;;;;;;;;;5009720;28;20026;-74
2022/01/05 03:22:53;;;;;;;1.13;1.00;;;;;;;;;;5008200;28;20134;-73
2022/01/05 03:25:19;;;;;;;3.03;1.05;;;;;;;;;;5008846;28;20120;-75
2022/01/05 03:27:47;;;;;;;0.90;0.80;;;;;;;;;;5009620;28;20026;-74
2022/01/05 03:30:14;;;;;;;3.13;1.00;;;;;;;;;;5009618;28;20109;-75
2022/01/05 03:33:02;;;;;;;1.00;0.88;;;;;;;;;;5009359;28;20480;-74
2022/01/05 03:35:28;;;;;;;0.80;0.80;;;;;;;;;;5009005;28;20057;-75
2022/01/05 03:37:54;;;;;;;1.27;0.90;;;;;;;;;;5008180;28;20065;-74
2022/01/05 03:40:19;;;;;;;1.77;1.10;;;;;;;;;;5009577;28;20056;-74
2022/01/05 03:42:45;;;;;;;1.42;1.00;;;;;;;;;;5010125;28;20076;-74
2022/01/05 03:45:10;;;;;;;2.05;0.95;;;;;;;;;;5009315;28;20471;-73
2022/01/05 03:47:35;;;;;;;4.00;1.25;;;;;;;;;;5009180;28;20044;-74
2022/01/05 03:50:01;;;;;;;2.88;1.20;;;;;;;;;;5009337;28;20487;-74
2022/01/05 03:52:26;;;;;;;2.78;1.50;;;;;;;;;;5009127;28;20034;-71
2022/01/05 03:54:51;;;;;;;4.15;1.30;;;;;;;;;;5009421;28;20022;-76
2022/01/05 03:57:17;;;;;;;3.92;1.20;;;;;;;;;;5009443;28;20292;-73
2022/01/05 03:59:42;;;;;;;1.48;1.17;;;;;;;;;;5010163;28;20116;-73
2022/01/05 04:02:07;;;;;;;4.15;1.30;;;;;;;;;;5010771;28;20033;-71
2022/01/05 04:04:33;;;;;;;2.17;1.30;;;;;;;;;;5009141;28;20109;-71
2022/01/05 04:06:58;;;;;;;3.33;1.10;;;;;;;;;;5009192;28;20464;-72
2022/01/05 04:09:23;;;;;;;4.20;1.27;;;;;;;;;;5011672;28;20033;-71
2022/01/05 04:11:49;;;;;;;3.83;1.30;;;;;;;;;;5028719;28;20053;-73
2022/01/05 04:14:14;;;;;;;2.83;1.40;;;;;;;;;;5030221;28;20067;-72
2022/01/05 04:16:39;;;;;;;2.55;1.20;;;;;;;;;;5032405;28;20028;-72
2022/01/05 04:19:04;;;;;;;1.85;1.27;;;;;;;;;;5018867;28;20474;-71
2022/01/05 04:21:30;;;;;;;2.92;1.50;;;;;;;;;;5012416;28;20018;-72
2022/01/05 04:23:55;;;;;;;3.67;1.60;;;;;;;;;;5015903;28;20060;-73
2022/01/05 04:26:20;;;;;;;5.22;1.60;;;;;;;;;;5032272;28;20056;-72
2022/01/05 04:28:46;;;;;;;4.82;1.35;;;;;;;;;;5022641;28;20030;-71
2022/01/05 04:31:11;;;;;;;3.53;1.10;;;;;;;;;;5012393;28;20026;-71
2022/01/05 04:33:36;;;;;;;2.05;1.20;;;;;;;;;;5012433;28;20030;-72
2022/01/05 04:36:02;;;;;;;2.63;1.42;;;;;;;;;;5011665;28;20038;-72
2022/01/05 04:38:28;;;;;;;3.20;1.55;;;;;;;;;;5012268;28;20029;-73
2022/01/05 04:40:54;;;;;;;3.70;1.50;;;;;;;;;;5020306;28;20028;-72
2022/01/05 04:43:19;;;;;;;5.43;1.35;;;;;;;;;;5031894;28;20025;-72
2022/01/05 04:45:45;;;;;;;4.18;1.95;;;;;;;;;;5031981;28;20403;-72
2022/01/05 04:48:10;;;;;;;4.43;1.60;;;;;;;;;;5031930;28;20025;-72
2022/01/05 04:50:35;;;;;;;5.15;1.40;;;;;;;;;;5031944;28;20025;-72
2022/01/05 04:53:01;;;;;;;3.17;1.80;;;;;;;;;;5031675;28;20033;-72
2022/01/05 04:55:26;;;;;;;2.97;1.67;;;;;;;;;;5030123;28;20037;-72
2022/01/05 04:57:51;;;;;;;2.90;1.90;;;;;;;;;;5021246;28;20025;-72
2022/01/05 05:00:17;;;;;;;6.80;1.75;;;;;;;;;;5031770;28;20475;-72
2022/01/05 05:02:42;;;;;;;5.18;1.65;;;;;;;;;;5031460;28;20483;-72
2022/01/05 05:05:08;;;;;;;3.80;1.60;;;;;;;;;;5031534;28;20041;-73
2022/01/05 05:07:33;;;;;;;4.68;1.98;;;;;;;;;;5031388;28;20079;-72
2022/01/05 05:09:59;;;;;;;2.95;1.70;;;;;;;;;;5031718;28;20021;-73
2022/01/05 05:12:24;;;;;;;4.90;2.00;;;;;;;;;;5031461;28;20025;-74
2022/01/05 05:14:50;;;;;;;4.57;1.52;;;;;;;;;;5022400;28;20377;-72
2022/01/05 05:17:15;;;;;;;4.07;1.98;;;;;;;;;;5011507;28;20026;-73
2022/01/05 05:19:41;;;;;;;4.25;1.60;;;;;;;;;;5010285;28;20024;-72
2022/01/05 05:22:06;;;;;;;3.35;1.40;;;;;;;;;;5016482;28;20019;-72
2022/01/05 05:24:31;;;;;;;9.00;1.83;;;;;;;;;;5020629;28;20479;-72
2022/01/05 05:26:57;;;;;;;7.57;2.00;;;;;;;;;;5010581;28;20458;-73
2022/01/05 05:29:22;;;;;;;6.43;1.52;;;;;;;;;;5011438;28;20022;-72
2022/01/05 05:31:47;;;;;;;8.35;1.67;;;;;;;;;;5012192;28;20026;-73
2022/01/05 05:34:12;;;;;;;4.07;1.45;;;;;;;;;;5011520;28;20030;-72
2022/01/05 05:36:38;;;;;;;6.88;1.50;;;;;;;;;;5011198;28;20496;-74
2022/01/05 05:39:03;;;;;;;4.95;1.60;;;;;;;;;;5011231;28;20053;-72
2022/01/05 05:41:28;;;;;;;5.95;2.00;;;;;;;;;;5011153;28;20049;-73
2022/01/05 05:43:54;;;;;;;3.63;1.40;;;;;;;;;;5010836;28;20060;-74
2022/01/05 05:46:19;;;;;;;5.93;1.60;;;;;;;;;;5009789;28;20022;-74
2022/01/05 05:48:45;;;;;;;7.10;1.67;;;;;;;;;;5012062;28;20036;-72
2022/01/05 05:51:10;;;;;;;5.13;1.40;;;;;;;;;;5010841;28;20033;-72
2022/01/05 05:53:35;;;;;;;11.95;2.70;;;;;;;;;;5010568;28;20034;-74
2022/01/05 05:56:01;;;;;;;8.50;2.78;;;;;;;;;;5010806;28;20565;-72
2022/01/05 05:58:26;;;;;;;4.82;2.88;;;;;;;;;;5010631;28;20036;-72
2022/01/05 06:00:51;;;;;;;5.13;2.08;;;;;;;;;;5010689;28;20476;-72
2022/01/05 06:03:17;;;;;;;6.25;2.60;;;;;;;;;;5010774;28;20088;-72
2022/01/05 06:05:42;;;;;;;4.05;2.08;;;;;;;;;;5011527;28;20044;-74
2022/01/05 06:08:08;;;;;;;5.43;1.80;;;;;;;;;;5010816;28;20025;-72
2022/01/05 06:10:33;;;;;;;4.35;1.60;;;;;;;;;;5010851;28;20025;-72
2022/01/05 06:12:59;;;;;;;8.05;2.22;;;;;;;;;;5010645;28;20026;-72
2022/01/05 06:15:24;;;;;;;7.13;2.92;;;;;;;;;;5010884;28;20033;-73
2022/01/05 06:17:49;;;;;;;5.50;1.60;;;;;;;;;;5010455;28;20399;-72
2022/01/05 06:20:15;;;;;;;8.18;1.80;;;;;;;;;;5010642;28;20029;-72
2022/01/05 06:22:42;;;;;;;7.85;1.88;;;;;;;;;;5011257;28;20029;-74
2022/01/05 06:25:09;;;;;;;7.95;1.70;;;;;;;;;;5009995;28;20465;-73
2022/01/05 06:27:34;;;;;;;6.68;2.00;;;;;;;;;;5010156;28;20026;-72
2022/01/05 06:30:04;;;;;;;6.85;2.08;;;;;;;;;;5010676;28;20498;-74
2022/01/05 06:32:30;;;;;;;5.35;1.90;;;;;;;;;;5009896;28;20022;-74
2022/01/05 06:34:55;;;;;;;5.40;2.13;;;;;;;;;;5009940;28;20026;-73
2022/01/05 06:37:21;;;;;;;7.35;1.70;;;;;;;;;;5009819;28;20431;-74
2022/01/05 06:39:46;;;;;;;9.52;1.92;;;;;;;;;;5009585;28;20551;-73
2022/01/05 06:42:11;;;;;;;6.60;1.60;;;;;;;;;;5009964;28;20109;-72
2022/01/05 06:44:37;;;;;;;8.80;2.22;;;;;;;;;;5009869;28;20033;-72
2022/01/05 06:47:02;;;;;;;7.30;1.85;;;;;;;;;;5010145;28;20041;-75
2022/01/05 06:49:27;;;;;;;6.22;1.55;;;;;;;;;;5009586;28;20076;-73
2022/01/05 06:51:53;;;;;;;5.53;1.85;;;;;;;;;;5010044;28;20380;-72
2022/01/05 06:54:18;;;;;;;9.65;1.88;;;;;;;;;;5009829;28;20033;-73
2022/01/05 06:56:46;;;;;;;11.77;2.47;;;;;;;;;;5020371;28;20034;-74
2022/01/05 06:59:12;;;;;;;8.90;2.20;;;;;;;;;;5014121;28;20056;-72
2022/01/05 07:01:37;;;;;;;4.05;1.73;;;;;;;;;;5004925;28;20054;-73
2022/01/05 07:04:02;;;;;;;5.50;2.08;;;;;;;;;;5007229;28;20041;-73
2022/01/05 07:06:27;;;;;;;3.95;1.80;;;;;;;;;;5009683;28;20018;-72
2022/01/05 07:08:53;;;;;;;5.40;1.80;;;;;;;;;;5005478;28;20264;-72
2022/01/05 07:11:18;;;;;;;5.55;1.85;;;;;;;;;;5007554;28;20037;-72
2022/01/05 07:13:43;;;;;;;5.13;1.52;;;;;;;;;;5008664;28;20030;-72
2022/01/05 07:16:09;;;;;;;7.10;2.67;;;;;;;;;;5009297;28;20069;-73
2022/01/05 07:18:34;;;;;;;3.33;1.90;;;;;;;;;;5007168;28;20045;-75
2022/01/05 07:21:00;;;;;;;3.75;1.45;;;;;;;;;;5005876;28;20088;-71
2022/01/05 07:23:25;;;;;;;7.80;2.10;;;;;;;;;;5008797;28;20034;-72
2022/01/05 07:25:50;;;;;;;13.27;4.20;;;;;;;;;;5009041;28;20069;-72
2022/01/05 07:28:16;;;;;;;6.35;3.42;;;;;;;;;;5009027;28;20120;-70
2022/01/05 07:30:41;;;;;;;7.93;2.58;;;;;;;;;;5009291;28;20137;-72
2022/01/05 07:33:06;;;;;;;5.88;2.00;;;;;;;;;;5008405;28;20029;-73
2022/01/05 07:35:32;;;;;;;7.22;1.60;;;;;;;;;;5008258;28;20053;-73
2022/01/05 07:37:57;;;;;;;8.98;2.13;;;;;;;;;;5009206;28;20072;-71
2022/01/05 07:40:22;;;;;;;9.05;2.38;;;;;;;;;;5008944;28;20061;-72
2022/01/05 07:42:48;;;;;;;5.22;2.03;;;;;;;;;;5003693;28;20060;-72
2022/01/05 07:45:13;;;;;;;7.43;2.50;;;;;;;;;;5007820;28;20038;-72
2022/01/05 07:47:38;;;;;;;5.63;2.85;;;;;;;;;;5009309;28;20379;-71
2022/01/05 07:50:09;;;;;;;5.72;2.38;;;;;;;;;;5010595;28;20033;-74
2022/01/05 07:52:34;;;;;;;8.20;3.50;;;;;;;;;;5012672;28;20112;-73
2022/01/05 07:55:01;;;;;;;11.82;4.78;;;;;;;;;;5012438;28;20494;-73
2022/01/05 07:57:27;;;;;;;10.27;5.40;;;;;;;;;;5013326;28;20097;-73
2022/01/05 07:59:52;;;;;;;11.38;4.70;;;;;;;;;;5009385;28;20164;-74
2022/01/05 08:02:17;;;;;;;11.52;3.90;;;;;;;;;;5013190;28;20388;-73
2022/01/05 08:04:48;;;;;;;6.97;3.63;;;;;;;;;;5012195;28;20037;-72
2022/01/05 08:07:13;;;;;;;6.30;2.42;;;;;;;;;;5012761;28;20034;-74
2022/01/05 08:09:38;;;;;;;10.40;2.28;;;;;;;;;;5011601;28;20502;-73
2022/01/05 08:12:04;;;;;;;7.82;3.25;;;;;;;;;;5012677;28;20025;-74
2022/01/05 08:14:30;;;;;;;7.88;2.75;;;;;;;;;;5012344;28;20032;-72
2022/01/05 08:16:55;;;;;;;7.55;2.53;;;;;;;;;;5012431;28;20104;-74
2022/01/05 08:19:20;;;;;;;10.45;4.13;;;;;;;;;;5011420;28;20033;-73
2022/01/05 08:21:45;;;;;;;4.95;2.30;;;;;;;;;;5012178;28;20045;-74
2022/01/05 08:24:11;;;;;;;5.50;2.42;;;;;;;;;;5012021;28;20021;-74
2022/01/05 08:26:37;;;;;;;7.15;3.28;;;;;;;;;;5012109;28;20097;-75
2022/01/05 08:29:02;;;;;;;9.98;2.60;;;;;;;;;;5009828;28;20030;-74
2022/01/05 08:31:27;;;;;;;9.65;2.72;;;;;;;;;;5010016;28;20076;-74
2022/01/05 08:33:56;;;;;;;11.40;2.67;;;;;;;;;;5000023;28;20202;-75
2022/01/05 08:36:22;;;;;;;12.30;3.20;;;;;;;;;;5008459;28;20026;-74
2022/01/05 08:38:47;;;;;;;4.68;2.15;;;;;;;;;;5011612;28;20038;-73
2022/01/05 08:41:12;;;;;;;8.85;2.70;;;;;;;;;;5007036;28;20030;-74
2022/01/05 08:43:38;;;;;;;10.38;2.88;;;;;;;;;;5010016;28;20065;-74
2022/01/05 08:46:03;;;;;;;11.25;2.40;;;;;;;;;;5007389;28;20537;-73
2022/01/05 08:48:28;;;;;;;7.05;2.50;;;;;;;;;;5011169;28;20475;-74
2022/01/05 08:50:54;;;;;;;9.02;3.10;;;;;;;;;;5010475;28;20257;-74
2022/01/05 08:53:19;;;;;;;5.00;2.42;;;;;;;;;;5011272;28;20033;-73
2022/01/05 08:55:48;;;;;;;8.38;2.50;;;;;;;;;;5010671;28;20076;-74
2022/01/05 08:58:17;;;;;;;6.72;2.30;;;;;;;;;;5009634;28;20083;-76
2022/01/05 09:00:42;;;;;;;7.22;2.47;;;;;;;;;;5007085;28;20116;-74
2022/01/05 09:03:09;;;;;;;5.05;2.05;;;;;;;;;;5010836;28;20116;-72
2022/01/05 09:05:35;;;;;;;12.88;3.55;;;;;;;;;;5010934;28;20032;-74
2022/01/05 09:08:00;;;;;;;6.60;2.55;;;;;;;;;;5010157;28;20038;-75
2022/01/05 09:10:25;;;;;;;10.45;2.83;;;;;;;;;;5010666;28;20032;-73
2022/01/05 09:12:53;;;;;;;10.50;2.50;;;;;;;;;;5009677;28;20037;-74
2022/01/05 09:15:18;;;;;;;7.53;2.33;;;;;;;;;;5010410;28;20379;-76
2022/01/05 09:17:43;;;;;;;6.93;2.20;;;;;;;;;;5011455;28;20026;-73
2022/01/05 09:20:09;;;;;;;8.57;2.10;;;;;;;;;;5010092;28;20121;-74
2022/01/05 09:22:38;;;;;;;8.63;2.30;;;;;;;;;;5010880;28;20057;-75
2022/01/05 09:25:09;;;;;;;6.97;2.60;;;;;;;;;;5009625;28;20075;-74
2022/01/05 09:27:35;;;;;;;12.60;5.88;;;;;;;;;;5011047;28;20642;-73
2022/01/05 09:30:01;;;;;;;19.05;9.00;;;;;;;;;;5005948;28;20129;-73
2022/01/05 09:32:26;;;;;;;8.18;3.45;;;;;;;;;;5007547;28;20030;-76
2022/01/05 09:34:52;;;;;;;10.52;7.05;;;;;;;;;;5009469;28;20052;-73
2022/01/05 09:37:25;;;;;;;6.47;2.70;;;;;;;;;;5010560;28;20037;-75
2022/01/05 09:42:35;;;;;;;10.02;2.95;;;;;;;;;;5004623;28;20113;-73
2022/01/05 09:45:19;;;;;;;5.32;2.10;;;;;;;;;;5008480;28;20022;-74
2022/01/05 09:48:02;;;;;;;17.27;6.30;;;;;;;;;;5010523;28;20068;-75
2022/01/05 09:50:28;;;;;;;9.07;3.58;;;;;;;;;;5008084;28;20026;-73
2022/01/05 09:52:55;;;;;;;10.35;4.18;;;;;;;;;;5010081;28;20268;-75
2022/01/05 09:55:21;;;;;;;5.13;1.88;;;;;;;;;;5007642;28;20025;-76
2022/01/05 09:57:46;;;;;;;15.27;7.07;;;;;;;;;;5008982;28;20109;-75
2022/01/05 10:00:14;;;;;;;7.40;4.90;;;;;;;;;;5007159;28;20032;-76
2022/01/05 10:02:41;;;;;;;7.38;2.53;;;;;;;;;;5010418;28;20527;-76
2022/01/05 10:05:10;;;;;;;14.90;5.90;;;;;;;;;;5009133;28;20476;-77
2022/01/05 10:07:36;;;;;;;6.40;2.60;;;;;;;;;;5009917;28;20484;-75
2022/01/05 10:10:03;;;;;;;5.40;2.80;;;;;;;;;;5009032;28;20092;-75
2022/01/05 10:12:28;;;;;;;5.78;2.15;;;;;;;;;;5007803;28;20025;-76
2022/01/05 10:14:53;;;;;;;6.15;1.98;;;;;;;;;;5006978;28;20030;-75
2022/01/05 10:17:24;;;;;;;8.38;2.30;;;;;;;;;;5009135;28;20317;-76
2022/01/05 10:19:55;;;;;;;7.15;1.92;;;;;;;;;;5009882;28;20433;-75
2022/01/05 10:22:35;;;;;;;5.80;2.25;;;;;;;;;;4997920;28;20018;-76
2022/01/05 10:25:04;;;;;;;9.27;2.92;;;;;;;;;;5003388;28;20045;-75
2022/01/05 10:27:30;;;;;;;5.97;1.90;;;;;;;;;;5010345;28;20025;-75
2022/01/05 10:30:04;;;;;;;12.18;2.10;;;;;;;;;;5008641;28;20029;-76
2022/01/05 10:32:32;;;;;;;5.07;2.53;;;;;;;;;;5003714;28;20026;-77
2022/01/05 10:35:08;;;;;;;6.50;2.90;;;;;;;;;;5009287;28;20109;-74
2022/01/05 10:37:35;;;;;;;12.50;2.97;;;;;;;;;;5003988;28;20033;-75
2022/01/05 10:40:07;;;;;;;8.55;2.85;;;;;;;;;;5000979;28;20550;-75
2022/01/05 10:42:33;;;;;;;9.70;2.33;;;;;;;;;;5008907;28;20519;-75
2022/01/05 10:44:58;;;;;;;7.45;2.17;;;;;;;;;;4999466;28;20113;-78
2022/01/05 10:47:25;;;;;;;4.45;2.10;;;;;;;;;;5000818;28;20052;-77
2022/01/05 10:49:51;;;;;;;4.22;1.90;;;;;;;;;;4998496;28;20022;-75
2022/01/05 10:52:24;;;;;;;5.13;1.90;;;;;;;;;;5002766;28;20022;-75
2022/01/05 10:54:51;;;;;;;7.03;2.22;;;;;;;;;;4999470;28;20119;-74
2022/01/05 10:57:17;;;;;;;9.38;2.33;;;;;;;;;;5000407;28;20049;-75
2022/01/05 10:59:44;;;;;;;6.85;2.92;;;;;;;;;;5000154;28;20037;-73
2022/01/05 11:02:20;;;;;;;6.55;2.45;;;;;;;;;;5001385;28;20018;-74
2022/01/05 11:04:45;;;;;;;6.13;1.77;;;;;;;;;;5007286;28;20057;-77
2022/01/05 11:07:19;;;;;;;4.95;1.85;;;;;;;;;;4998960;28;20472;-74
2022/01/05 11:09:53;;;;;;;6.45;2.85;;;;;;;;;;5003212;28;20040;-76
2022/01/05 11:12:18;;;;;;;6.25;2.20;;;;;;;;;;4991706;28;20038;-76
2022/01/05 11:14:43;;;;;;;6.40;2.03;;;;;;;;;;5003966;28;20076;-72
2022/01/05 11:17:09;;;;;;;8.55;2.40;;;;;;;;;;5009185;28;20259;-76
2022/01/05 11:19:36;;;;;;;8.68;1.50;;;;;;;;;;5009384;28;20018;-74
2022/01/05 11:22:17;;;;;;;5.82;1.83;;;;;;;;;;5008923;28;20033;-76
2022/01/05 11:24:53;;;;;;;4.30;1.73;;;;;;;;;;5013196;28;20030;-76
2022/01/05 11:27:28;;;;;;;8.48;1.80;;;;;;;;;;5012075;28;20042;-76
2022/01/05 11:29:54;;;;;;;6.43;1.65;;;;;;;;;;5012686;28;20038;-76
2022/01/05 11:32:25;;;;;;;5.15;1.92;;;;;;;;;;5010189;28;20100;-76
2022/01/05 11:34:51;;;;;;;6.50;1.60;;;;;;;;;;5011927;28;20033;-77
2022/01/05 11:37:17;;;;;;;6.75;1.77;;;;;;;;;;5013114;28;20575;-76
2022/01/05 11:39:48;;;;;;;6.10;2.13;;;;;;;;;;5011879;28;20034;-78
2022/01/05 11:42:17;;;;;;;4.95;2.10;;;;;;;;;;5004789;28;20041;-76
2022/01/05 11:44:45;;;;;;;7.32;2.13;;;;;;;;;;5004171;28;20462;-75
2022/01/05 11:47:24;;;;;;;4.93;1.88;;;;;;;;;;5007233;28;20030;-78
2022/01/05 11:49:51;;;;;;;24.73;9.88;;;;;;;;;;5007854;28;20036;-76
2022/01/05 11:52:16;;;;;;;15.38;5.28;;;;;;;;;;5024854;28;20391;-77
2022/01/05 11:55:00;;;;;;;15.63;5.93;;;;;;;;;;5020031;28;20037;-76
2022/01/05 11:57:28;;;;;;;11.68;6.00;;;;;;;;;;5033021;28;20034;-76
2022/01/05 12:00:17;;;;;;;16.60;5.80;;;;;;;;;;5025335;28;20037;-75
2022/01/05 12:02:43;;;;;;;8.27;3.97;;;;;;;;;;4993317;28;20038;-77
2022/01/05 12:05:08;;;;;;;7.97;2.80;;;;;;;;;;4995028;28;20030;-76
2022/01/05 12:07:42;;;;;;;6.85;3.08;;;;;;;;;;5009159;28;20045;-73
2022/01/05 12:10:12;;;;;;;7.85;3.53;;;;;;;;;;5014527;28;20033;-76
2022/01/05 12:12:51;;;;;;;5.35;2.20;;;;;;;;;;5012679;28;20201;-76
2022/01/05 12:15:39;;;;;;;6.55;2.38;;;;;;;;;;5014527;28;20518;-75
2022/01/05 12:18:05;;;;;;;5.43;2.05;;;;;;;;;;5012552;28;20095;-76
2022/01/05 12:20:36;;;;;;;5.63;1.95;;;;;;;;;;5012838;28;20105;-78
2022/01/05 12:23:15;;;;;;;8.77;3.17;;;;;;;;;;5002106;28;20120;-77
2022/01/05 12:28:37;;;;;;;6.03;1.70;;;;;;;;;;4998168;28;20034;-75
2022/01/05 12:31:06;;;;;;;6.80;1.80;;;;;;;;;;5017476;28;20111;-74
2022/01/05 12:33:49;;;;;;;7.10;2.25;;;;;;;;;;5002410;28;20026;-77
2022/01/05 12:36:31;;;;;;;6.17;2.10;;;;;;;;;;5009142;28;20045;-77
2022/01/05 12:38:56;;;;;;;10.27;3.63;;;;;;;;;;5010371;28;20487;-74
2022/01/05 12:41:23;;;;;;;8.70;3.85;;;;;;;;;;5007760;28;20033;-76
2022/01/05 12:43:49;;;;;;;5.90;1.85;;;;;;;;;;5007783;28;20080;-78
2022/01/05 12:46:34;;;;;;;13.85;6.55;;;;;;;;;;5017576;28;20033;-77
2022/01/05 12:49:03;;;;;;;11.35;5.82;;;;;;;;;;5008096;28;20030;-77
2022/01/05 12:51:34;;;;;;;10.45;3.63;;;;;;;;;;5007770;28;20425;-76
2022/01/05 12:54:03;;;;;;;7.07;2.78;;;;;;;;;;5007860;28;20087;-77
2022/01/05 12:56:37;;;;;;;13.43;7.35;;;;;;;;;;5008027;28;20106;-77
2022/01/05 12:59:05;;;;;;;12.57;5.60;;;;;;;;;;5007560;28;20061;-76
2022/01/05 13:01:32;;;;;;;8.70;3.45;;;;;;;;;;5002567;28;20181;-76
2022/01/05 13:06:46;;;;;;;7.82;3.13;;;;;;;;;;5008418;28;20530;-73
2022/01/05 13:09:14;;;;;;;9.93;5.45;;;;;;;;;;5007923;28;20049;-76
2022/01/05 13:11:42;;;;;;;4.00;2.40;;;;;;;;;;5007796;28;20420;-77
2022/01/05 13:14:20;;;;;;;6.10;1.80;;;;;;;;;;5007559;28;20025;-77
2022/01/05 13:17:16;;;;;;;6.57;2.03;;;;;;;;;;5006646;28;20033;-76
2022/01/05 13:19:46;;;;;;;6.13;3.50;;;;;;;;;;5015598;28;20580;-77
2022/01/05 13:22:17;;;;;;;8.27;3.70;;;;;;;;;;5007839;28;20399;-76
2022/01/05 13:24:48;;;;;;;8.85;1.73;;;;;;;;;;5010095;28;20087;-75
2022/01/05 13:27:16;;;;;;;9.00;2.15;;;;;;;;;;5011642;28;20440;-80
2022/01/05 13:29:41;;;;;;;6.50;2.75;;;;;;;;;;5009157;28;20640;-77
2022/01/05 13:32:11;;;;;;;8.50;2.35;;;;;;;;;;5014712;28;20068;-77
2022/01/05 13:34:46;;;;;;;9.18;2.80;;;;;;;;;;5005176;28;20487;-78
2022/01/05 13:37:23;;;;;;;8.02;1.90;;;;;;;;;;5006873;28;20033;-79
2022/01/05 13:39:49;;;;;;;6.80;1.70;;;;;;;;;;5014419;28;20026;-76
2022/01/05 13:42:18;;;;;;;9.65;2.08;;;;;;;;;;5007226;28;20022;-77
2022/01/05 13:44:46;;;;;;;4.15;2.10;;;;;;;;;;5007863;28;20048;-77
2022/01/05 13:47:17;;;;;;;4.35;1.52;;;;;;;;;;5006968;28;20037;-76
2022/01/05 13:50:16;;;;;;;8.18;2.42;;;;;;;;;;5008121;28;20040;-76
2022/01/05 13:52:44;;;;;;;7.20;2.65;;;;;;;;;;5007330;28;20208;-75
2022/01/05 13:55:24;;;;;;;7.38;3.28;;;;;;;;;;5003416;28;20035;-75
2022/01/05 13:57:49;;;;;;;9.60;2.38;;;;;;;;;;5005128;28;20095;-75
2022/01/05 14:00:15;;;;;;;5.97;2.15;;;;;;;;;;5007325;28;20026;-74
2022/01/05 14:02:41;;;;;;;10.52;2.83;;;;;;;;;;5007290;28;20029;-75
2022/01/05 14:05:12;;;;;;;7.55;1.92;;;;;;;;;;5006237;28;20041;-76
2022/01/05 14:07:39;;;;;;;9.27;2.47;;;;;;;;;;5004501;28;20026;-76
2022/01/05 14:10:14;;;;;;;6.60;2.90;;;;;;;;;;5007370;28;20022;-76
2022/01/05 14:12:48;;;;;;;5.93;1.70;;;;;;;;;;5015591;28;20305;-75
2022/01/05 14:15:16;;;;;;;6.53;2.80;;;;;;;;;;5005877;28;20084;-77
2022/01/05 14:18:11;;;;;;;5.38;1.75;;;;;;;;;;5004457;28;20030;-76
2022/01/05 14:20:47;;;;;;;4.53;1.40;;;;;;;;;;5017616;28;20060;-76
2022/01/05 14:23:16;;;;;;;6.18;1.80;;;;;;;;;;5007027;28;20042;-76
2022/01/05 14:25:48;;;;;;;4.35;1.95;;;;;;;;;;5016250;28;20096;-76
2022/01/05 14:28:33;;;;;;;7.30;1.90;;;;;;;;;;5014809;28;20504;-76
2022/01/05 14:31:15;;;;;;;6.95;1.90;;;;;;;;;;5006770;28;20540;-76
2022/01/05 14:33:43;;;;;;;5.15;2.10;;;;;;;;;;4987574;28;20342;-75
2022/01/05 14:36:25;;;;;;;3.97;1.55;;;;;;;;;;4986609;28;20033;-76
2022/01/05 14:38:55;;;;;;;5.10;2.22;;;;;;;;;;5006257;28;20029;-76
2022/01/05 14:41:20;;;;;;;6.35;1.75;;;;;;;;;;5026664;28;20611;-75
2022/01/05 14:44:09;;;;;;;5.20;1.92;;;;;;;;;;5011229;28;20033;-75
2022/01/05 14:46:35;;;;;;;4.40;1.70;;;;;;;;;;4999678;28;20050;-75
2022/01/05 14:49:02;;;;;;;4.75;1.88;;;;;;;;;;5006956;28;20040;-76
2022/01/05 14:51:28;;;;;;;6.50;2.03;;;;;;;;;;5006808;28;20526;-76